sensor_id;sensor_type;location;lat;lon;timestamp;pressure;altitude;pressure_sealevel;temperature;humidity
38912;BME280;28444;48.056;14.408;2024-02-26T00:00:33;96136.47;;;0.16;100.00
38912;BME280;28444;48.056;14.408;2024-02-26T00:03:01;96136.69;;;0.18;100.00
38912;BME280;28444;48.056;14.408;2024-02-26T00:05:28;96130.25;;;0.21;100.00
38912;BME280;28444;48.056;14.408;2024-02-26T00:07:55;96129.34;;;0.19;100.00
38912;BME280;28444;48.056;14.408;2024-02-26T00:10:22;96134.72;;;0.19;100.00
38912;BME280;28444;48.056;14.408;2024-02-26T00:12:49;96132.09;;;0.27;100.00
38912;BME280;28444;48.056;14.408;2024-02-26T00:15:15;96128.28;;;0.22;100.00
38912;BME280;28444;48.056;14.408;2024-02-26T00:17:42;96130.44;;;0.23;100.00
38912;BME280;28444;48.056;14.408;2024-02-26T00:20:10;96130.31;;;0.29;100.00
38912;BME280;28444;48.056;14.408;2024-02-26T00:22:37;96124.25;;;0.36;100.00
38912;BME280;28444;48.056;14.408;2024-02-26T00:25:04;96123.47;;;0.28;100.00
38912;BME280;28444;48.056;14.408;2024-02-26T00:27:31;96114.09;;;0.21;100.00
38912;BME280;28444;48.056;14.408;2024-02-26T00:29:57;96116.06;;;0.21;100.00
38912;BME280;28444;48.056;14.408;2024-02-26T00:32:24;96111.25;;;0.19;100.00
38912;BME280;28444;48.056;14.408;2024-02-26T00:34:51;96107.00;;;0.32;100.00
38912;BME280;28444;48.056;14.408;2024-02-26T00:37:18;96107.94;;;0.34;100.00
38912;BME280;28444;48.056;14.408;2024-02-26T00:39:45;96111.38;;;0.42;100.00
38912;BME280;28444;48.056;14.408;2024-02-26T00:42:13;96116.06;;;0.42;100.00
38912;BME280;28444;48.056;14.408;2024-02-26T00:44:39;96104.38;;;0.39;100.00
38912;BME280;28444;48.056;14.408;2024-02-26T00:47:06;96101.28;;;0.35;100.00
38912;BME280;28444;48.056;14.408;2024-02-26T00:49:33;96105.97;;;0.35;100.00
38912;BME280;28444;48.056;14.408;2024-02-26T00:51:59;96100.59;;;0.35;100.00
38912;BME280;28444;48.056;14.408;2024-02-26T00:54:26;96106.69;;;0.35;100.00
38912;BME280;28444;48.056;14.408;2024-02-26T00:56:52;96099.16;;;0.34;100.00
38912;BME280;28444;48.056;14.408;2024-02-26T00:59:19;96099.47;;;0.30;100.00
38912;BME280;28444;48.056;14.408;2024-02-26T01:01:46;96094.34;;;0.11;100.00
38912;BME280;28444;48.056;14.408;2024-02-26T01:04:12;96094.25;;;0.04;100.00
38912;BME280;28444;48.056;14.408;2024-02-26T01:06:42;96086.53;;;0.00;100.00
38912;BME280;28444;48.056;14.408;2024-02-26T01:09:08;96077.78;;;0.07;100.00
38912;BME280;28444;48.056;14.408;2024-02-26T01:11:35;96080.16;;;0.11;100.00
38912;BME280;28444;48.056;14.408;2024-02-26T01:14:02;96072.56;;;0.02;100.00
38912;BME280;28444;48.056;14.408;2024-02-26T01:16:30;96069.16;;;0.01;100.00
38912;BME280;28444;48.056;14.408;2024-02-26T01:18:58;96072.63;;;0.09;100.00
38912;BME280;28444;48.056;14.408;2024-02-26T01:21:26;96068.50;;;0.08;100.00
38912;BME280;28444;48.056;14.408;2024-02-26T01:24:01;96066.91;;;0.13;100.00
38912;BME280;28444;48.056;14.408;2024-02-26T01:26:28;96067.88;;;0.23;100.00
38912;BME280;28444;48.056;14.408;2024-02-26T01:28:54;96072.63;;;0.09;100.00
38912;BME280;28444;48.056;14.408;2024-02-26T01:31:22;96067.25;;;0.09;100.00
38912;BME280;28444;48.056;14.408;2024-02-26T01:34:03;96062.25;;;0.13;100.00
38912;BME280;28444;48.056;14.408;2024-02-26T01:36:31;96068.00;;;0.17;100.00
38912;BME280;28444;48.056;14.408;2024-02-26T01:39:00;96065.47;;;0.12;100.00
38912;BME280;28444;48.056;14.408;2024-02-26T01:41:48;96066.19;;;0.12;100.00
38912;BME280;28444;48.056;14.408;2024-02-26T01:44:15;96060.66;;;0.18;100.00
38912;BME280;28444;48.056;14.408;2024-02-26T01:46:41;96054.78;;;0.19;100.00
38912;BME280;28444;48.056;14.408;2024-02-26T01:49:11;96057.25;;;0.17;100.00
38912;BME280;28444;48.056;14.408;2024-02-26T01:51:41;96048.38;;;0.02;100.00
38912;BME280;28444;48.056;14.408;2024-02-26T01:54:08;96043.00;;;0.02;100.00
38912;BME280;28444;48.056;14.408;2024-02-26T01:56:36;96042.06;;;-0.01;100.00
38912;BME280;28444;48.056;14.408;2024-02-26T01:59:05;96037.50;;;-0.14;100.00
38912;BME280;28444;48.056;14.408;2024-02-26T02:01:32;96026.94;;;-0.12;100.00
38912;BME280;28444;48.056;14.408;2024-02-26T02:04:00;96038.03;;;-0.15;100.00
38912;BME280;28444;48.056;14.408;2024-02-26T02:06:27;96038.56;;;-0.17;100.00
38912;BME280;28444;48.056;14.408;2024-02-26T02:08:56;96035.16;;;-0.17;100.00
38912;BME280;28444;48.056;14.408;2024-02-26T02:11:23;96038.56;;;-0.17;100.00
38912;BME280;28444;48.056;14.408;2024-02-26T02:13:50;96038.69;;;-0.22;100.00
38912;BME280;28444;48.056;14.408;2024-02-26T02:16:17;96045.44;;;-0.29;100.00
38912;BME280;28444;48.056;14.408;2024-02-26T02:18:43;96042.41;;;-0.26;100.00
38912;BME280;28444;48.056;14.408;2024-02-26T02:21:10;96041.47;;;-0.36;100.00
38912;BME280;28444;48.056;14.408;2024-02-26T02:23:37;96045.03;;;-0.33;100.00
38912;BME280;28444;48.056;14.408;2024-02-26T02:26:05;96040.75;;;-0.36;100.00
38912;BME280;28444;48.056;14.408;2024-02-26T02:28:32;96047.94;;;-0.52;100.00
38912;BME280;28444;48.056;14.408;2024-02-26T02:30:59;96045.44;;;-0.50;100.00
38912;BME280;28444;48.056;14.408;2024-02-26T02:33:27;96043.47;;;-0.50;100.00
38912;BME280;28444;48.056;14.408;2024-02-26T02:35:54;96041.72;;;-0.47;100.00
38912;BME280;28444;48.056;14.408;2024-02-26T02:38:21;96040.88;;;-0.42;100.00
38912;BME280;28444;48.056;14.408;2024-02-26T02:40:49;96042.22;;;-0.49;100.00
38912;BME280;28444;48.056;14.408;2024-02-26T02:43:16;96031.94;;;-0.37;100.00
38912;BME280;28444;48.056;14.408;2024-02-26T02:45:43;96039.25;;;-0.58;100.00
38912;BME280;28444;48.056;14.408;2024-02-26T02:48:11;96039.09;;;-0.60;100.00
38912;BME280;28444;48.056;14.408;2024-02-26T02:50:38;96039.94;;;-0.65;100.00
38912;BME280;28444;48.056;14.408;2024-02-26T02:53:05;96036.72;;;-0.64;100.00
38912;BME280;28444;48.056;14.408;2024-02-26T02:55:31;96035.34;;;-0.57;100.00
38912;BME280;28444;48.056;14.408;2024-02-26T02:57:58;96041.63;;;-0.55;100.00
38912;BME280;28444;48.056;14.408;2024-02-26T03:00:24;96032.91;;;-0.47;100.00
38912;BME280;28444;48.056;14.408;2024-02-26T03:02:51;96035.41;;;-0.70;100.00
38912;BME280;28444;48.056;14.408;2024-02-26T03:05:18;96036.06;;;-0.78;100.00
38912;BME280;28444;48.056;14.408;2024-02-26T03:07:45;96046.28;;;-0.76;100.00
38912;BME280;28444;48.056;14.408;2024-02-26T03:10:12;96036.38;;;-0.81;100.00
38912;BME280;28444;48.056;14.408;2024-02-26T03:12:38;96030.44;;;-0.66;100.00
38912;BME280;28444;48.056;14.408;2024-02-26T03:15:05;96032.03;;;-0.50;100.00
38912;BME280;28444;48.056;14.408;2024-02-26T03:17:32;96037.72;;;-0.33;100.00
38912;BME280;28444;48.056;14.408;2024-02-26T03:19:58;96043.94;;;-0.38;100.00
38912;BME280;28444;48.056;14.408;2024-02-26T03:22:25;96037.63;;;-0.40;100.00
38912;BME280;28444;48.056;14.408;2024-02-26T03:24:52;96036.34;;;-0.47;100.00
38912;BME280;28444;48.056;14.408;2024-02-26T03:27:18;96038.09;;;-0.50;100.00
38912;BME280;28444;48.056;14.408;2024-02-26T03:29:45;96043.47;;;-0.50;100.00
38912;BME280;28444;48.056;14.408;2024-02-26T03:32:12;96040.88;;;-0.42;100.00
38912;BME280;28444;48.056;14.408;2024-02-26T03:34:38;96034.63;;;-0.37;100.00
38912;BME280;28444;48.056;14.408;2024-02-26T03:37:06;96030.31;;;-0.40;100.00
38912;BME280;28444;48.056;14.408;2024-02-26T03:39:35;96022.06;;;-0.42;100.00
38912;BME280;28444;48.056;14.408;2024-02-26T03:42:02;96029.34;;;-0.50;100.00
38912;BME280;28444;48.056;14.408;2024-02-26T03:44:29;96021.72;;;-0.59;100.00
38912;BME280;28444;48.056;14.408;2024-02-26T03:46:56;96021.22;;;-0.58;100.00
38912;BME280;28444;48.056;14.408;2024-02-26T03:49:22;96024.78;;;-0.55;100.00
38912;BME280;28444;48.056;14.408;2024-02-26T03:51:49;96025.94;;;-0.51;100.00
38912;BME280;28444;48.056;14.408;2024-02-26T03:54:16;96026.25;;;-0.54;100.00
38912;BME280;28444;48.056;14.408;2024-02-26T03:56:43;96026.06;;;-0.56;100.00
38912;BME280;28444;48.056;14.408;2024-02-26T03:59:09;96029.28;;;-0.58;100.00
38912;BME280;28444;48.056;14.408;2024-02-26T04:01:36;96024.72;;;-0.63;100.00
38912;BME280;28444;48.056;14.408;2024-02-26T04:04:02;96032.94;;;-0.68;100.00
38912;BME280;28444;48.056;14.408;2024-02-26T04:06:29;96028.53;;;-0.58;100.00
38912;BME280;28444;48.056;14.408;2024-02-26T04:08:56;96027.94;;;-0.64;100.00
38912;BME280;28444;48.056;14.408;2024-02-26T04:11:23;96035.28;;;-0.65;100.00
38912;BME280;28444;48.056;14.408;2024-02-26T04:13:49;96038.63;;;-0.72;100.00
38912;BME280;28444;48.056;14.408;2024-02-26T04:16:18;96034.69;;;-0.71;100.00
38912;BME280;28444;48.056;14.408;2024-02-26T04:18:45;96043.34;;;-0.65;100.00
38912;BME280;28444;48.056;14.408;2024-02-26T04:21:12;96037.66;;;-0.61;100.00
38912;BME280;28444;48.056;14.408;2024-02-26T04:23:38;96037.25;;;-0.65;100.00
38912;BME280;28444;48.056;14.408;2024-02-26T04:26:05;96036.19;;;-0.62;100.00
38912;BME280;28444;48.056;14.408;2024-02-26T04:28:32;96029.63;;;-0.75;100.00
38912;BME280;28444;48.056;14.408;2024-02-26T04:30:58;96036.13;;;-0.70;100.00
38912;BME280;28444;48.056;14.408;2024-02-26T04:33:25;96043.47;;;-0.70;100.00
38912;BME280;28444;48.056;14.408;2024-02-26T04:35:52;96031.28;;;-0.71;100.00
38912;BME280;28444;48.056;14.408;2024-02-26T04:38:19;96038.94;;;-0.76;100.00
38912;BME280;28444;48.056;14.408;2024-02-26T04:40:45;96031.53;;;-0.83;100.00
38912;BME280;28444;48.056;14.408;2024-02-26T04:43:13;96041.75;;;-0.81;100.00
38912;BME280;28444;48.056;14.408;2024-02-26T04:45:40;96036.63;;;-0.92;100.00
38912;BME280;28444;48.056;14.408;2024-02-26T04:48:07;96046.81;;;-0.91;100.00
38912;BME280;28444;48.056;14.408;2024-02-26T04:50:34;96040.22;;;-0.90;100.00
38912;BME280;28444;48.056;14.408;2024-02-26T04:53:00;96044.34;;;-0.89;100.00
38912;BME280;28444;48.056;14.408;2024-02-26T04:55:27;96043.56;;;-0.97;100.00
38912;BME280;28444;48.056;14.408;2024-02-26T04:57:54;96049.50;;;-0.91;100.00
38912;BME280;28444;48.056;14.408;2024-02-26T05:00:20;96046.81;;;-0.91;100.00
38912;BME280;28444;48.056;14.408;2024-02-26T05:02:47;96043.00;;;-0.82;100.00
38912;BME280;28444;48.056;14.408;2024-02-26T05:05:14;96054.84;;;-0.78;100.00
38912;BME280;28444;48.056;14.408;2024-02-26T05:07:41;96059.56;;;-0.70;100.00
38912;BME280;28444;48.056;14.408;2024-02-26T05:10:11;96058.97;;;-0.77;100.00
38912;BME280;28444;48.056;14.408;2024-02-26T05:12:38;96056.88;;;-0.70;100.00
38912;BME280;28444;48.056;14.408;2024-02-26T05:15:05;96059.78;;;-0.68;100.00
38912;BME280;28444;48.056;14.408;2024-02-26T05:17:32;96059.38;;;-0.73;100.00
38912;BME280;28444;48.056;14.408;2024-02-26T05:19:58;96053.81;;;-0.75;100.00
38912;BME280;28444;48.056;14.408;2024-02-26T05:22:25;96057.66;;;-0.83;100.00
38912;BME280;28444;48.056;14.408;2024-02-26T05:24:52;96059.50;;;-0.78;100.00
38912;BME280;28444;48.056;14.408;2024-02-26T05:27:18;96055.16;;;-0.81;100.00
38912;BME280;28444;48.056;14.408;2024-02-26T05:29:45;96056.19;;;-0.84;100.00
38912;BME280;28444;48.056;14.408;2024-02-26T05:32:12;96071.16;;;-0.76;100.00
38912;BME280;28444;48.056;14.408;2024-02-26T05:34:39;96070.97;;;-0.91;100.00
38912;BME280;28444;48.056;14.408;2024-02-26T05:37:07;96073.78;;;-0.97;100.00
38912;BME280;28444;48.056;14.408;2024-02-26T05:39:34;96064.00;;;-0.94;100.00
38912;BME280;28444;48.056;14.408;2024-02-26T05:42:01;96068.09;;;-0.93;100.00
38912;BME280;28444;48.056;14.408;2024-02-26T05:44:27;96067.66;;;-0.84;100.00
38912;BME280;28444;48.056;14.408;2024-02-26T05:46:54;96060.34;;;-0.83;100.00
38912;BME280;28444;48.056;14.408;2024-02-26T05:49:22;96061.25;;;-0.81;100.00
38912;BME280;28444;48.056;14.408;2024-02-26T05:51:49;96060.03;;;-0.80;100.00
38912;BME280;28444;48.056;14.408;2024-02-26T05:54:15;96056.13;;;-0.92;100.00
38912;BME280;28444;48.056;14.408;2024-02-26T05:56:42;96064.63;;;-1.01;100.00
38912;BME280;28444;48.056;14.408;2024-02-26T05:59:09;96073.91;;;-1.02;100.00
38912;BME280;28444;48.056;14.408;2024-02-26T06:01:36;96079.16;;;-0.97;100.00
38912;BME280;28444;48.056;14.408;2024-02-26T06:04:02;96082.38;;;-0.98;100.00
38912;BME280;28444;48.056;14.408;2024-02-26T06:06:31;96077.72;;;-0.98;100.00
38912;BME280;28444;48.056;14.408;2024-02-26T06:08:58;96075.16;;;-1.03;100.00
38912;BME280;28444;48.056;14.408;2024-02-26T06:11:25;96074.09;;;-1.00;100.00
38912;BME280;28444;48.056;14.408;2024-02-26T06:13:51;96072.13;;;-1.00;100.00
38912;BME280;28444;48.056;14.408;2024-02-26T06:16:18;96076.34;;;-0.91;100.00
38912;BME280;28444;48.056;14.408;2024-02-26T06:18:45;96081.53;;;-0.93;100.00
38912;BME280;28444;48.056;14.408;2024-02-26T06:21:12;96084.34;;;-1.12;100.00
38912;BME280;28444;48.056;14.408;2024-02-26T06:23:39;96092.91;;;-1.13;100.00
38912;BME280;28444;48.056;14.408;2024-02-26T06:26:07;96092.50;;;-1.17;100.00
38912;BME280;28444;48.056;14.408;2024-02-26T06:28:33;96099.22;;;-1.11;100.00
38912;BME280;28444;48.056;14.408;2024-02-26T06:31:02;96096.94;;;-1.07;100.00
38912;BME280;28444;48.056;14.408;2024-02-26T06:33:29;96106.22;;;-1.08;100.00
38912;BME280;28444;48.056;14.408;2024-02-26T06:35:55;96095.09;;;-1.12;100.00
38912;BME280;28444;48.056;14.408;2024-02-26T06:38:22;96094.78;;;-1.08;100.00
38912;BME280;28444;48.056;14.408;2024-02-26T06:40:49;96103.94;;;-1.04;100.00
38912;BME280;28444;48.056;14.408;2024-02-26T06:43:15;96101.56;;;-1.07;100.00
38912;BME280;28444;48.056;14.408;2024-02-26T06:45:42;96109.53;;;-1.02;100.00
38912;BME280;28444;48.056;14.408;2024-02-26T06:48:09;96116.28;;;-0.87;100.00
38912;BME280;28444;48.056;14.408;2024-02-26T06:50:35;96113.81;;;-0.85;100.00
38912;BME280;28444;48.056;14.408;2024-02-26T06:53:02;96118.44;;;-0.73;100.00
38912;BME280;28444;48.056;14.408;2024-02-26T06:55:29;96132.53;;;-0.59;100.00
38912;BME280;28444;48.056;14.408;2024-02-26T06:57:56;96129.53;;;-0.55;100.00
38912;BME280;28444;48.056;14.408;2024-02-26T07:00:23;96136.88;;;-0.56;100.00
38912;BME280;28444;48.056;14.408;2024-02-26T07:02:50;96128.72;;;-0.50;100.00
38912;BME280;28444;48.056;14.408;2024-02-26T07:05:16;96133.75;;;-0.46;100.00
38912;BME280;28444;48.056;14.408;2024-02-26T07:07:43;96130.22;;;-0.41;100.00
38912;BME280;28444;48.056;14.408;2024-02-26T07:10:10;96136.84;;;-0.42;100.00
38912;BME280;28444;48.056;14.408;2024-02-26T07:12:39;96137.09;;;-0.54;100.00
38912;BME280;28444;48.056;14.408;2024-02-26T07:15:06;96127.69;;;-0.47;100.00
38912;BME280;28444;48.056;14.408;2024-02-26T07:17:34;96137.34;;;-0.44;100.00
38912;BME280;28444;48.056;14.408;2024-02-26T07:20:01;96131.75;;;-0.33;100.00
38912;BME280;28444;48.056;14.408;2024-02-26T07:22:34;96128.59;;;-0.23;100.00
38912;BME280;28444;48.056;14.408;2024-02-26T07:25:01;96128.28;;;-0.20;100.00
38912;BME280;28444;48.056;14.408;2024-02-26T07:27:28;96127.97;;;-0.16;100.00
38912;BME280;28444;48.056;14.408;2024-02-26T07:29:54;96135.16;;;-0.11;100.00
38912;BME280;28444;48.056;14.408;2024-02-26T07:32:21;96140.53;;;-0.11;100.00
38912;BME280;28444;48.056;14.408;2024-02-26T07:34:48;96141.34;;;-0.03;100.00
38912;BME280;28444;48.056;14.408;2024-02-26T07:37:15;96136.47;;;-0.05;100.00
38912;BME280;28444;48.056;14.408;2024-02-26T07:39:42;96140.31;;;0.00;100.00
38912;BME280;28444;48.056;14.408;2024-02-26T07:42:08;96139.63;;;0.07;100.00
38912;BME280;28444;48.056;14.408;2024-02-26T07:44:36;96129.66;;;0.15;100.00
38912;BME280;28444;48.056;14.408;2024-02-26T07:47:02;96135.81;;;0.23;100.00
38912;BME280;28444;48.056;14.408;2024-02-26T07:49:29;96138.56;;;0.31;100.00
38912;BME280;28444;48.056;14.408;2024-02-26T07:51:56;96130.72;;;0.33;100.00
38912;BME280;28444;48.056;14.408;2024-02-26T07:54:24;96134.44;;;0.30;100.00
38912;BME280;28444;48.056;14.408;2024-02-26T07:56:51;96138.13;;;0.40;100.00
38912;BME280;28444;48.056;14.408;2024-02-26T07:59:18;96136.69;;;0.47;100.00
38912;BME280;28444;48.056;14.408;2024-02-26T08:01:49;96140.03;;;0.61;100.00
38912;BME280;28444;48.056;14.408;2024-02-26T08:04:21;96142.75;;;0.68;100.00
38912;BME280;28444;48.056;14.408;2024-02-26T08:06:48;96131.91;;;0.82;100.00
38912;BME280;28444;48.056;14.408;2024-02-26T08:09:15;96139.28;;;0.89;100.00
38912;BME280;28444;48.056;14.408;2024-02-26T08:11:41;96140.56;;;0.88;100.00
38912;BME280;28444;48.056;14.408;2024-02-26T08:14:08;96145.22;;;0.87;100.00
38912;BME280;28444;48.056;14.408;2024-02-26T08:16:35;96145.06;;;0.93;100.00
38912;BME280;28444;48.056;14.408;2024-02-26T08:19:02;96153.00;;;0.99;100.00
38912;BME280;28444;48.056;14.408;2024-02-26T08:21:29;96140.69;;;1.18;100.00
38912;BME280;28444;48.056;14.408;2024-02-26T08:23:56;96146.06;;;1.18;100.00
38912;BME280;28444;48.056;14.408;2024-02-26T08:26:23;96154.00;;;1.24;100.00
38912;BME280;28444;48.056;14.408;2024-02-26T08:28:50;96151.88;;;1.30;100.00
38912;BME280;28444;48.056;14.408;2024-02-26T08:31:17;96151.72;;;1.36;100.00
38912;BME280;28444;48.056;14.408;2024-02-26T08:33:44;96155.00;;;1.50;100.00
38912;BME280;28444;48.056;14.408;2024-02-26T08:36:11;96147.09;;;1.52;100.00
38912;BME280;28444;48.056;14.408;2024-02-26T08:38:38;96148.72;;;1.55;100.00
38912;BME280;28444;48.056;14.408;2024-02-26T08:41:04;96155.59;;;1.63;100.00
38912;BME280;28444;48.056;14.408;2024-02-26T08:43:31;96154.88;;;1.71;100.00
38912;BME280;28444;48.056;14.408;2024-02-26T08:45:58;96157.59;;;1.78;100.00
38912;BME280;28444;48.056;14.408;2024-02-26T08:48:24;96158.84;;;1.85;100.00
38912;BME280;28444;48.056;14.408;2024-02-26T08:50:51;96160.13;;;1.99;100.00
38912;BME280;28444;48.056;14.408;2024-02-26T08:53:18;96161.25;;;2.11;100.00
38912;BME280;28444;48.056;14.408;2024-02-26T08:55:56;96166.81;;;2.06;100.00
38912;BME280;28444;48.056;14.408;2024-02-26T08:58:23;96170.22;;;2.14;100.00
38912;BME280;28444;48.056;14.408;2024-02-26T09:00:50;96173.13;;;2.24;100.00
38912;BME280;28444;48.056;14.408;2024-02-26T09:03:17;96163.22;;;2.26;100.00
38912;BME280;28444;48.056;14.408;2024-02-26T09:05:44;96165.94;;;2.34;100.00
38912;BME280;28444;48.056;14.408;2024-02-26T09:08:11;96160.72;;;2.44;100.00
38912;BME280;28444;48.056;14.408;2024-02-26T09:10:39;96166.09;;;2.59;99.92
38912;BME280;28444;48.056;14.408;2024-02-26T09:13:05;96152.06;;;2.60;99.08
38912;BME280;28444;48.056;14.408;2024-02-26T09:15:32;96158.53;;;2.73;99.45
38912;BME280;28444;48.056;14.408;2024-02-26T09:17:58;96155.97;;;2.82;99.03
38912;BME280;28444;48.056;14.408;2024-02-26T09:20:25;96153.09;;;2.88;98.76
38912;BME280;28444;48.056;14.408;2024-02-26T09:22:52;96157.75;;;3.03;97.76
38912;BME280;28444;48.056;14.408;2024-02-26T09:25:19;96159.19;;;3.04;96.30
38912;BME280;28444;48.056;14.408;2024-02-26T09:27:47;96153.75;;;3.11;97.40
38912;BME280;28444;48.056;14.408;2024-02-26T09:30:14;96148.91;;;3.10;96.37
38912;BME280;28444;48.056;14.408;2024-02-26T09:32:40;96153.59;;;3.09;98.44
38912;BME280;28444;48.056;14.408;2024-02-26T09:35:07;96164.38;;;3.17;98.02
38912;BME280;28444;48.056;14.408;2024-02-26T09:37:34;96164.88;;;3.31;96.74
38912;BME280;28444;48.056;14.408;2024-02-26T09:40:04;96171.50;;;3.37;97.27
38912;BME280;28444;48.056;14.408;2024-02-26T09:42:31;96170.75;;;3.52;96.86
38912;BME280;28444;48.056;14.408;2024-02-26T09:45:00;96166.00;;;3.60;97.54
38912;BME280;28444;48.056;14.408;2024-02-26T09:47:31;96167.97;;;3.68;96.26
38912;BME280;28444;48.056;14.408;2024-02-26T09:49:59;96174.63;;;3.67;96.11
38912;BME280;28444;48.056;14.408;2024-02-26T09:52:31;96180.53;;;3.73;96.59
38912;BME280;28444;48.056;14.408;2024-02-26T09:54:59;96177.22;;;3.90;96.45
38912;BME280;28444;48.056;14.408;2024-02-26T09:57:27;96177.84;;;4.05;96.64
38912;BME280;28444;48.056;14.408;2024-02-26T09:59:53;96177.00;;;4.20;96.23
38912;BME280;28444;48.056;14.408;2024-02-26T10:02:23;96177.91;;;4.23;94.56
38912;BME280;28444;48.056;14.408;2024-02-26T10:04:51;96175.81;;;4.39;94.85
38912;BME280;28444;48.056;14.408;2024-02-26T10:07:20;96177.66;;;4.53;94.63
38912;BME280;28444;48.056;14.408;2024-02-26T10:09:48;96186.91;;;4.50;93.71
38912;BME280;28444;48.056;14.408;2024-02-26T10:12:15;96186.78;;;4.66;93.31
38912;BME280;28444;48.056;14.408;2024-02-26T10:14:43;96184.13;;;4.83;93.60
38912;BME280;28444;48.056;14.408;2024-02-26T10:17:11;96182.50;;;4.97;93.09
38912;BME280;28444;48.056;14.408;2024-02-26T10:19:37;96187.31;;;5.06;93.30
38912;BME280;28444;48.056;14.408;2024-02-26T10:22:05;96180.94;;;5.12;93.26
38912;BME280;28444;48.056;14.408;2024-02-26T10:24:32;96174.22;;;5.30;92.25
38912;BME280;28444;48.056;14.408;2024-02-26T10:27:01;96173.41;;;5.37;92.92
38912;BME280;28444;48.056;14.408;2024-02-26T10:29:28;96173.41;;;5.37;91.94
38912;BME280;28444;48.056;14.408;2024-02-26T10:31:55;96173.59;;;5.39;92.22
38912;BME280;28444;48.056;14.408;2024-02-26T10:34:22;96171.75;;;5.42;91.40
38912;BME280;28444;48.056;14.408;2024-02-26T10:36:49;96174.38;;;5.49;91.25
38912;BME280;28444;48.056;14.408;2024-02-26T10:39:20;96174.69;;;5.53;91.08
38912;BME280;28444;48.056;14.408;2024-02-26T10:41:48;96174.50;;;5.69;90.85
38912;BME280;28444;48.056;14.408;2024-02-26T10:44:15;96176.00;;;5.79;90.19
38912;BME280;28444;48.056;14.408;2024-02-26T10:46:47;96172.69;;;5.98;90.72
38912;BME280;28444;48.056;14.408;2024-02-26T10:49:15;96177.16;;;6.03;90.69
38912;BME280;28444;48.056;14.408;2024-02-26T10:51:53;96165.19;;;6.07;89.05
38912;BME280;28444;48.056;14.408;2024-02-26T10:54:21;96165.50;;;6.20;89.16
38912;BME280;28444;48.056;14.408;2024-02-26T10:56:50;96176.94;;;6.19;89.46
38912;BME280;28444;48.056;14.408;2024-02-26T10:59:18;96168.66;;;6.26;88.08
38912;BME280;28444;48.056;14.408;2024-02-26T11:01:50;96181.66;;;6.28;88.50
38912;BME280;28444;48.056;14.408;2024-02-26T11:04:18;96171.38;;;6.26;89.27
38912;BME280;28444;48.056;14.408;2024-02-26T11:06:49;96167.69;;;6.32;88.57
38912;BME280;28444;48.056;14.408;2024-02-26T11:09:17;96162.78;;;6.20;88.53
38912;BME280;28444;48.056;14.408;2024-02-26T11:11:46;96169.97;;;6.25;89.40
38912;BME280;28444;48.056;14.408;2024-02-26T11:14:14;96164.53;;;6.25;89.15
38912;BME280;28444;48.056;14.408;2024-02-26T11:16:42;96162.34;;;6.14;89.22
38912;BME280;28444;48.056;14.408;2024-02-26T11:19:10;96159.34;;;6.20;89.48
38912;BME280;28444;48.056;14.408;2024-02-26T11:21:39;96162.94;;;6.22;89.68
38912;BME280;28444;48.056;14.408;2024-02-26T11:24:13;96163.84;;;6.35;89.64
38912;BME280;28444;48.056;14.408;2024-02-26T11:26:51;96163.88;;;6.44;89.59
38912;BME280;28444;48.056;14.408;2024-02-26T11:29:29;96158.34;;;6.62;89.64
38912;BME280;28444;48.056;14.408;2024-02-26T11:31:59;96156.06;;;6.68;89.38
38912;BME280;28444;48.056;14.408;2024-02-26T11:34:27;96162.19;;;6.59;88.65
38912;BME280;28444;48.056;14.408;2024-02-26T11:36:54;96156.94;;;6.70;88.62
38912;BME280;28444;48.056;14.408;2024-02-26T11:39:21;96157.38;;;6.77;87.90
38912;BME280;28444;48.056;14.408;2024-02-26T11:41:47;96158.66;;;6.85;88.30
38912;BME280;28444;48.056;14.408;2024-02-26T11:44:28;96153.09;;;6.83;89.26
38912;BME280;28444;48.056;14.408;2024-02-26T11:46:56;96151.97;;;6.96;87.66
38912;BME280;28444;48.056;14.408;2024-02-26T11:51:57;96157.69;;;7.00;88.04
38912;BME280;28444;48.056;14.408;2024-02-26T11:54:50;96142.94;;;7.03;88.82
38912;BME280;28444;48.056;14.408;2024-02-26T11:57:39;96144.81;;;6.91;88.22
38912;BME280;28444;48.056;14.408;2024-02-26T12:02:51;96133.09;;;6.98;87.54
38912;BME280;28444;48.056;14.408;2024-02-26T12:05:25;96128.91;;;6.97;87.45
38912;BME280;28444;48.056;14.408;2024-02-26T12:10:38;96134.94;;;6.95;88.49
38912;BME280;28444;48.056;14.408;2024-02-26T12:13:11;96139.94;;;6.99;88.60
38912;BME280;28444;48.056;14.408;2024-02-26T12:15:55;96136.38;;;6.96;89.21
38912;BME280;28444;48.056;14.408;2024-02-26T12:18:22;96131.50;;;6.95;88.99
38912;BME280;28444;48.056;14.408;2024-02-26T12:21:02;96138.53;;;6.98;89.68
38912;BME280;28444;48.056;14.408;2024-02-26T12:23:30;96147.41;;;6.98;89.22
38912;BME280;28444;48.056;14.408;2024-02-26T12:26:01;96142.50;;;6.97;89.25
38912;BME280;28444;48.056;14.408;2024-02-26T12:28:33;96145.97;;;6.97;89.71
38912;BME280;28444;48.056;14.408;2024-02-26T12:31:00;96145.09;;;6.95;89.64
38912;BME280;28444;48.056;14.408;2024-02-26T12:33:27;96140.22;;;6.93;89.52
38912;BME280;28444;48.056;14.408;2024-02-26T12:35:55;96135.53;;;6.94;89.22
38912;BME280;28444;48.056;14.408;2024-02-26T12:38:22;96138.66;;;6.90;90.32
38912;BME280;28444;48.056;14.408;2024-02-26T12:40:49;96137.66;;;6.86;90.68
38912;BME280;28444;48.056;14.408;2024-02-26T12:43:16;96139.38;;;6.91;90.61
38912;BME280;28444;48.056;14.408;2024-02-26T12:45:43;96145.09;;;6.95;89.73
38912;BME280;28444;48.056;14.408;2024-02-26T12:48:14;96141.38;;;6.90;89.97
38912;BME280;28444;48.056;14.408;2024-02-26T12:50:45;96148.38;;;6.93;89.90
38912;BME280;28444;48.056;14.408;2024-02-26T12:53:13;96156.97;;;6.99;90.25
38912;BME280;28444;48.056;14.408;2024-02-26T12:55:40;96156.97;;;6.99;89.83
38912;BME280;28444;48.056;14.408;2024-02-26T12:58:08;96153.13;;;7.03;89.11